sensor_id;sensor_type;location;lat;lon;timestamp;temperature;humidity
74792;SHT30;63319;46.046;17.802;2023-04-02T00:00:29;22.59;42.15
74792;SHT30;63319;46.046;17.802;2023-04-02T00:06:53;22.55;41.85
74792;SHT30;63319;46.046;17.802;2023-04-02T00:09:57;22.53;41.84
74792;SHT30;63319;46.046;17.802;2023-04-02T00:16:07;22.55;42.06
74792;SHT30;63319;46.046;17.802;2023-04-02T00:19:17;22.56;42.09
74792;SHT30;63319;46.046;17.802;2023-04-02T00:22:27;22.53;42.13
74792;SHT30;63319;46.046;17.802;2023-04-02T00:25:35;22.52;42.03
74792;SHT30;63319;46.046;17.802;2023-04-02T00:28:38;22.53;42.10
74792;SHT30;63319;46.046;17.802;2023-04-02T00:31:46;22.52;42.07
74792;SHT30;63319;46.046;17.802;2023-04-02T00:34:49;22.50;41.98
74792;SHT30;63319;46.046;17.802;2023-04-02T00:37:53;22.52;41.98
74792;SHT30;63319;46.046;17.802;2023-04-02T00:41:00;22.50;42.07
74792;SHT30;63319;46.046;17.802;2023-04-02T00:44:03;22.50;42.00
74792;SHT30;63319;46.046;17.802;2023-04-02T00:47:20;22.50;41.97
74792;SHT30;63319;46.046;17.802;2023-04-02T00:53:30;22.50;42.14
74792;SHT30;63319;46.046;17.802;2023-04-02T00:56:38;22.50;42.03
74792;SHT30;63319;46.046;17.802;2023-04-02T00:59:54;22.49;42.07
74792;SHT30;63319;46.046;17.802;2023-04-02T01:03:33;22.50;42.08
74792;SHT30;63319;46.046;17.802;2023-04-02T01:06:38;22.49;41.93
74792;SHT30;63319;46.046;17.802;2023-04-02T01:10:02;22.49;42.13
74792;SHT30;63319;46.046;17.802;2023-04-02T01:23:27;22.48;42.11
74792;SHT30;63319;46.046;17.802;2023-04-02T01:27:00;22.46;41.94
74792;SHT30;63319;46.046;17.802;2023-04-02T01:30:05;22.49;42.03
74792;SHT30;63319;46.046;17.802;2023-04-02T01:33:13;22.45;41.96
74792;SHT30;63319;46.046;17.802;2023-04-02T01:40:02;22.45;42.11
74792;SHT30;63319;46.046;17.802;2023-04-02T01:46:32;22.45;42.01
74792;SHT30;63319;46.046;17.802;2023-04-02T01:49:35;22.43;42.02
74792;SHT30;63319;46.046;17.802;2023-04-02T01:52:40;22.42;41.87
74792;SHT30;63319;46.046;17.802;2023-04-02T01:55:50;22.43;42.08
74792;SHT30;63319;46.046;17.802;2023-04-02T01:58:55;22.41;41.95
74792;SHT30;63319;46.046;17.802;2023-04-02T02:02:03;22.39;42.01
74792;SHT30;63319;46.046;17.802;2023-04-02T02:05:14;22.42;42.13
74792;SHT30;63319;46.046;17.802;2023-04-02T02:08:33;22.41;41.92
74792;SHT30;63319;46.046;17.802;2023-04-02T02:11:39;22.42;42.06
74792;SHT30;63319;46.046;17.802;2023-04-02T02:14:49;22.42;41.96
74792;SHT30;63319;46.046;17.802;2023-04-02T02:18:01;22.39;41.99
74792;SHT30;63319;46.046;17.802;2023-04-02T02:21:06;22.39;42.00
74792;SHT30;63319;46.046;17.802;2023-04-02T02:24:24;22.38;42.09
74792;SHT30;63319;46.046;17.802;2023-04-02T02:30:49;22.38;41.87
74792;SHT30;63319;46.046;17.802;2023-04-02T02:34:03;22.35;41.97
74792;SHT30;63319;46.046;17.802;2023-04-02T02:37:16;22.38;41.88
74792;SHT30;63319;46.046;17.802;2023-04-02T02:40:30;22.36;41.96
74792;SHT30;63319;46.046;17.802;2023-04-02T02:43:38;22.35;41.97
74792;SHT30;63319;46.046;17.802;2023-04-02T02:46:57;22.33;41.79
74792;SHT30;63319;46.046;17.802;2023-04-02T02:50:06;22.31;41.85
74792;SHT30;63319;46.046;17.802;2023-04-02T02:53:19;22.33;41.72
74792;SHT30;63319;46.046;17.802;2023-04-02T02:56:23;22.32;41.68
74792;SHT30;63319;46.046;17.802;2023-04-02T02:59:28;22.31;41.95
74792;SHT30;63319;46.046;17.802;2023-04-02T03:02:35;22.31;41.92
74792;SHT30;63319;46.046;17.802;2023-04-02T03:05:42;22.28;41.81
74792;SHT30;63319;46.046;17.802;2023-04-02T03:12:50;22.28;41.90
74792;SHT30;63319;46.046;17.802;2023-04-02T03:22:45;22.29;41.83
74792;SHT30;63319;46.046;17.802;2023-04-02T03:26:21;22.26;41.83
74792;SHT30;63319;46.046;17.802;2023-04-02T03:29:28;22.29;41.61
74792;SHT30;63319;46.046;17.802;2023-04-02T03:32:36;22.25;41.78
74792;SHT30;63319;46.046;17.802;2023-04-02T03:39:20;22.26;41.81
74792;SHT30;63319;46.046;17.802;2023-04-02T03:42:29;22.23;41.68
74792;SHT30;63319;46.046;17.802;2023-04-02T03:45:41;22.22;41.91
74792;SHT30;63319;46.046;17.802;2023-04-02T03:48:50;22.22;41.84
74792;SHT30;63319;46.046;17.802;2023-04-02T03:52:08;22.25;41.77
74792;SHT30;63319;46.046;17.802;2023-04-02T03:55:24;22.22;41.84
74792;SHT30;63319;46.046;17.802;2023-04-02T03:58:43;22.23;41.79
74792;SHT30;63319;46.046;17.802;2023-04-02T04:05:20;22.22;41.77
74792;SHT30;63319;46.046;17.802;2023-04-02T04:08:36;22.22;41.84
74792;SHT30;63319;46.046;17.802;2023-04-02T04:11:45;22.21;41.76
74792;SHT30;63319;46.046;17.802;2023-04-02T04:15:30;22.22;41.85
74792;SHT30;63319;46.046;17.802;2023-04-02T04:18:53;22.21;41.92
74792;SHT30;63319;46.046;17.802;2023-04-02T04:22:18;22.21;41.76
74792;SHT30;63319;46.046;17.802;2023-04-02T04:25:27;22.21;41.85
74792;SHT30;63319;46.046;17.802;2023-04-02T04:35:36;22.19;41.84
74792;SHT30;63319;46.046;17.802;2023-04-02T04:38:48;22.19;41.75
74792;SHT30;63319;46.046;17.802;2023-04-02T04:41:59;22.21;41.67
74792;SHT30;63319;46.046;17.802;2023-04-02T04:48:45;22.25;41.89
74792;SHT30;63319;46.046;17.802;2023-04-02T04:52:07;22.22;41.63
74792;SHT30;63319;46.046;17.802;2023-04-02T04:58:36;22.23;41.65
74792;SHT30;63319;46.046;17.802;2023-04-02T05:05:20;22.22;41.69
74792;SHT30;63319;46.046;17.802;2023-04-02T05:08:30;22.22;41.72
74792;SHT30;63319;46.046;17.802;2023-04-02T05:11:43;22.25;41.71
74792;SHT30;63319;46.046;17.802;2023-04-02T05:14:52;22.22;41.75
74792;SHT30;63319;46.046;17.802;2023-04-02T05:18:25;22.23;41.62
74792;SHT30;63319;46.046;17.802;2023-04-02T05:21:52;22.26;41.71
74792;SHT30;63319;46.046;17.802;2023-04-02T05:25:01;22.26;41.81
74792;SHT30;63319;46.046;17.802;2023-04-02T05:28:22;22.26;41.63
74792;SHT30;63319;46.046;17.802;2023-04-02T05:31:36;22.23;41.42
74792;SHT30;63319;46.046;17.802;2023-04-02T05:34:46;22.26;41.44
74792;SHT30;63319;46.046;17.802;2023-04-02T05:37:49;22.28;41.56
74792;SHT30;63319;46.046;17.802;2023-04-02T05:44:37;22.31;41.59
74792;SHT30;63319;46.046;17.802;2023-04-02T05:47:44;22.31;41.62
74792;SHT30;63319;46.046;17.802;2023-04-02T05:50:55;22.33;41.58
74792;SHT30;63319;46.046;17.802;2023-04-02T05:54:04;22.32;41.53
74792;SHT30;63319;46.046;17.802;2023-04-02T05:57:18;22.33;41.42
74792;SHT30;63319;46.046;17.802;2023-04-02T06:07:17;22.43;41.30
74792;SHT30;63319;46.046;17.802;2023-04-02T06:10:32;22.43;41.33
74792;SHT30;63319;46.046;17.802;2023-04-02T06:13:36;22.43;41.16
74792;SHT30;63319;46.046;17.802;2023-04-02T06:16:43;22.43;41.04
74792;SHT30;63319;46.046;17.802;2023-04-02T06:19:47;22.45;41.20
74792;SHT30;63319;46.046;17.802;2023-04-02T06:26:37;22.46;41.16
74792;SHT30;63319;46.046;17.802;2023-04-02T06:29:43;22.46;41.33
74792;SHT30;63319;46.046;17.802;2023-04-02T06:32:51;22.46;41.17
74792;SHT30;63319;46.046;17.802;2023-04-02T06:35:56;22.46;41.14
74792;SHT30;63319;46.046;17.802;2023-04-02T06:39:07;22.49;41.21
74792;SHT30;63319;46.046;17.802;2023-04-02T06:42:20;22.52;41.14
74792;SHT30;63319;46.046;17.802;2023-04-02T06:45:44;22.57;41.11
74792;SHT30;63319;46.046;17.802;2023-04-02T06:52:35;22.66;40.87
74792;SHT30;63319;46.046;17.802;2023-04-02T06:55:47;22.74;40.72
74792;SHT30;63319;46.046;17.802;2023-04-02T06:58:57;22.84;40.78
74792;SHT30;63319;46.046;17.802;2023-04-02T07:02:03;22.83;40.17
74792;SHT30;63319;46.046;17.802;2023-04-02T07:05:09;22.90;40.42
74792;SHT30;63319;46.046;17.802;2023-04-02T07:08:20;22.96;40.16
74792;SHT30;63319;46.046;17.802;2023-04-02T07:11:23;23.00;40.07
74792;SHT30;63319;46.046;17.802;2023-04-02T07:14:31;23.08;40.15
74792;SHT30;63319;46.046;17.802;2023-04-02T07:17:33;23.14;40.06
74792;SHT30;63319;46.046;17.802;2023-04-02T07:20:37;23.18;39.93
74792;SHT30;63319;46.046;17.802;2023-04-02T07:23:43;23.25;39.91
74792;SHT30;63319;46.046;17.802;2023-04-02T07:26:46;23.25;39.80
74792;SHT30;63319;46.046;17.802;2023-04-02T07:29:50;23.31;39.89
74792;SHT30;63319;46.046;17.802;2023-04-02T07:32:53;23.35;39.59
74792;SHT30;63319;46.046;17.802;2023-04-02T07:35:57;23.39;39.68
74792;SHT30;63319;46.046;17.802;2023-04-02T07:39:00;23.41;39.73
74792;SHT30;63319;46.046;17.802;2023-04-02T07:42:03;23.49;39.67
74792;SHT30;63319;46.046;17.802;2023-04-02T07:45:06;23.52;39.53
74792;SHT30;63319;46.046;17.802;2023-04-02T07:48:11;23.72;39.32
74792;SHT30;63319;46.046;17.802;2023-04-02T07:51:22;24.07;38.58
74792;SHT30;63319;46.046;17.802;2023-04-02T07:54:26;24.30;37.95
74792;SHT30;63319;46.046;17.802;2023-04-02T07:57:29;24.43;37.65
74792;SHT30;63319;46.046;17.802;2023-04-02T08:00:32;24.64;37.47
74792;SHT30;63319;46.046;17.802;2023-04-02T08:03:35;25.03;36.79
74792;SHT30;63319;46.046;17.802;2023-04-02T08:06:38;25.44;35.91
74792;SHT30;63319;46.046;17.802;2023-04-02T08:09:41;25.71;35.68
74792;SHT30;63319;46.046;17.802;2023-04-02T08:12:44;26.14;35.00
74792;SHT30;63319;46.046;17.802;2023-04-02T08:15:47;26.24;34.88
74792;SHT30;63319;46.046;17.802;2023-04-02T08:18:50;26.36;34.86
74792;SHT30;63319;46.046;17.802;2023-04-02T08:21:53;26.39;34.89
74792;SHT30;63319;46.046;17.802;2023-04-02T08:24:56;26.46;34.87
74792;SHT30;63319;46.046;17.802;2023-04-02T08:27:58;26.59;34.78
74792;SHT30;63319;46.046;17.802;2023-04-02T08:31:03;26.61;34.61
74792;SHT30;63319;46.046;17.802;2023-04-02T08:34:06;26.60;34.62
74792;SHT30;63319;46.046;17.802;2023-04-02T08:37:12;26.73;34.48
74792;SHT30;63319;46.046;17.802;2023-04-02T08:40:36;26.43;35.00
74792;SHT30;63319;46.046;17.802;2023-04-02T08:47:12;25.95;35.81
74792;SHT30;63319;46.046;17.802;2023-04-02T08:53:34;25.71;36.19
74792;SHT30;63319;46.046;17.802;2023-04-02T08:56:39;25.67;36.32
74792;SHT30;63319;46.046;17.802;2023-04-02T08:59:45;25.67;36.35
74792;SHT30;63319;46.046;17.802;2023-04-02T09:02:59;25.60;36.51
74792;SHT30;63319;46.046;17.802;2023-04-02T09:06:03;25.61;36.49
74792;SHT30;63319;46.046;17.802;2023-04-02T09:09:07;25.58;36.55
74792;SHT30;63319;46.046;17.802;2023-04-02T09:12:21;25.56;36.66
74792;SHT30;63319;46.046;17.802;2023-04-02T09:15:32;25.61;36.52
74792;SHT30;63319;46.046;17.802;2023-04-02T09:18:36;25.66;36.45
74792;SHT30;63319;46.046;17.802;2023-04-02T09:21:44;25.68;36.50
74792;SHT30;63319;46.046;17.802;2023-04-02T09:24:53;25.68;36.37
74792;SHT30;63319;46.046;17.802;2023-04-02T09:27:59;25.67;36.55
74792;SHT30;63319;46.046;17.802;2023-04-02T09:31:18;25.64;36.51
74792;SHT30;63319;46.046;17.802;2023-04-02T09:34:30;25.63;36.65
74792;SHT30;63319;46.046;17.802;2023-04-02T09:37:33;25.60;36.56
74792;SHT30;63319;46.046;17.802;2023-04-02T09:44:24;25.51;36.81
74792;SHT30;63319;46.046;17.802;2023-04-02T09:47:27;25.53;36.83
74792;SHT30;63319;46.046;17.802;2023-04-02T09:50:32;25.56;36.83
74792;SHT30;63319;46.046;17.802;2023-04-02T09:57:02;25.51;36.90
74792;SHT30;63319;46.046;17.802;2023-04-02T10:03:31;25.53;36.95
74792;SHT30;63319;46.046;17.802;2023-04-02T10:06:34;25.51;36.95
74792;SHT30;63319;46.046;17.802;2023-04-02T10:09:37;25.50;37.03
74792;SHT30;63319;46.046;17.802;2023-04-02T10:12:41;25.53;36.93
74792;SHT30;63319;46.046;17.802;2023-04-02T10:15:54;25.56;36.88
74792;SHT30;63319;46.046;17.802;2023-04-02T10:22:43;25.63;36.83
74792;SHT30;63319;46.046;17.802;2023-04-02T10:46:31;25.87;36.49
74792;SHT30;63319;46.046;17.802;2023-04-02T10:53:12;25.96;36.37
74792;SHT30;63319;46.046;17.802;2023-04-02T10:56:16;26.04;36.29
74792;SHT30;63319;46.046;17.802;2023-04-02T10:59:23;26.25;36.12
74792;SHT30;63319;46.046;17.802;2023-04-02T11:02:35;26.49;35.69
74792;SHT30;63319;46.046;17.802;2023-04-02T11:05:47;26.49;35.60
74792;SHT30;63319;46.046;17.802;2023-04-02T11:08:57;26.31;35.83
74792;SHT30;63319;46.046;17.802;2023-04-02T11:12:03;26.14;36.09
74792;SHT30;63319;46.046;17.802;2023-04-02T11:15:17;26.05;36.17
74792;SHT30;63319;46.046;17.802;2023-04-02T11:18:26;25.96;36.42
74792;SHT30;63319;46.046;17.802;2023-04-02T11:24:41;26.12;36.25
74792;SHT30;63319;46.046;17.802;2023-04-02T11:27:45;26.56;35.60
74792;SHT30;63319;46.046;17.802;2023-04-02T11:30:48;26.97;34.83
74792;SHT30;63319;46.046;17.802;2023-04-02T11:33:51;27.27;34.35
74792;SHT30;63319;46.046;17.802;2023-04-02T11:40:00;27.63;33.77
74792;SHT30;63319;46.046;17.802;2023-04-02T11:46:40;27.37;34.22
74792;SHT30;63319;46.046;17.802;2023-04-02T11:59:40;27.05;34.75
74792;SHT30;63319;46.046;17.802;2023-04-02T12:03:03;26.76;35.19
74792;SHT30;63319;46.046;17.802;2023-04-02T12:09:45;26.60;35.51
74792;SHT30;63319;46.046;17.802;2023-04-02T12:12:51;27.00;34.88
74792;SHT30;63319;46.046;17.802;2023-04-02T12:15:56;27.12;34.68
74792;SHT30;63319;46.046;17.802;2023-04-02T12:19:01;27.02;34.77
74792;SHT30;63319;46.046;17.802;2023-04-02T12:22:04;26.79;35.16
74792;SHT30;63319;46.046;17.802;2023-04-02T12:28:27;26.59;35.55
74792;SHT30;63319;46.046;17.802;2023-04-02T12:31:35;26.53;35.65
74792;SHT30;63319;46.046;17.802;2023-04-02T12:34:44;26.60;35.54
74792;SHT30;63319;46.046;17.802;2023-04-02T12:37:51;26.95;34.99
74792;SHT30;63319;46.046;17.802;2023-04-02T12:40:57;27.04;34.82
74792;SHT30;63319;46.046;17.802;2023-04-02T12:44:01;26.94;35.04
74792;SHT30;63319;46.046;17.802;2023-04-02T12:47:04;26.70;35.42
74792;SHT30;63319;46.046;17.802;2023-04-02T12:50:13;26.53;35.62
74792;SHT30;63319;46.046;17.802;2023-04-02T12:53:22;26.42;35.80
74792;SHT30;63319;46.046;17.802;2023-04-02T12:56:26;26.40;35.83
74792;SHT30;63319;46.046;17.802;2023-04-02T12:59:34;26.42;35.86
74792;SHT30;63319;46.046;17.802;2023-04-02T13:02:45;26.53;35.66
74792;SHT30;63319;46.046;17.802;2023-04-02T13:05:54;26.61;35.58
74792;SHT30;63319;46.046;17.802;2023-04-02T13:08:59;26.63;35.57
74792;SHT30;63319;46.046;17.802;2023-04-02T13:12:03;26.73;35.36
74792;SHT30;63319;46.046;17.802;2023-04-02T13:15:14;26.65;35.47
74792;SHT30;63319;46.046;17.802;2023-04-02T13:18:21;26.60;35.51
74792;SHT30;63319;46.046;17.802;2023-04-02T13:21:25;26.63;35.54
74792;SHT30;63319;46.046;17.802;2023-04-02T13:24:32;26.57;35.54
74792;SHT30;63319;46.046;17.802;2023-04-02T13:27:35;26.63;35.56
74792;SHT30;63319;46.046;17.802;2023-04-02T13:30:39;26.53;35.65
74792;SHT30;63319;46.046;17.802;2023-04-02T13:33:43;26.42;35.87
74792;SHT30;63319;46.046;17.802;2023-04-02T13:36:46;26.31;36.03
74792;SHT30;63319;46.046;17.802;2023-04-02T13:39:49;26.18;36.34
74792;SHT30;63319;46.046;17.802;2023-04-02T13:42:53;26.08;36.45
74792;SHT30;63319;46.046;17.802;2023-04-02T13:45:57;25.95;36.65
74792;SHT30;63319;46.046;17.802;2023-04-02T13:49:01;25.92;36.75
74792;SHT30;63319;46.046;17.802;2023-04-02T13:52:13;25.85;36.85
74792;SHT30;63319;46.046;17.802;2023-04-02T13:55:18;25.81;36.85
74792;SHT30;63319;46.046;17.802;2023-04-02T13:58:23;25.78;36.97
74792;SHT30;63319;46.046;17.802;2023-04-02T14:01:26;25.73;37.07
74792;SHT30;63319;46.046;17.802;2023-04-02T14:04:32;25.68;37.14
74792;SHT30;63319;46.046;17.802;2023-04-02T14:20:40;25.47;37.52
74792;SHT30;63319;46.046;17.802;2023-04-02T14:40:49;25.44;37.56
74792;SHT30;63319;46.046;17.802;2023-04-02T14:44:02;25.39;37.64
74792;SHT30;63319;46.046;17.802;2023-04-02T14:47:44;25.37;37.63
74792;SHT30;63319;46.046;17.802;2023-04-02T14:50:54;25.37;37.69
74792;SHT30;63319;46.046;17.802;2023-04-02T14:54:11;25.36;37.73
74792;SHT30;63319;46.046;17.802;2023-04-02T15:00:40;25.31;37.78
74792;SHT30;63319;46.046;17.802;2023-04-02T15:04:02;25.27;37.84
74792;SHT30;63319;46.046;17.802;2023-04-02T15:07:22;25.26;37.87
74792;SHT30;63319;46.046;17.802;2023-04-02T15:11:00;25.23;37.92
74792;SHT30;63319;46.046;17.802;2023-04-02T15:14:18;25.20;37.96
74792;SHT30;63319;46.046;17.802;2023-04-02T15:17:30;25.16;38.03
74792;SHT30;63319;46.046;17.802;2023-04-02T15:20:41;25.15;38.13
74792;SHT30;63319;46.046;17.802;2023-04-02T15:24:13;25.08;38.16
74792;SHT30;63319;46.046;17.802;2023-04-02T15:27:31;25.08;38.19
74792;SHT30;63319;46.046;17.802;2023-04-02T15:30:41;25.03;38.27
74792;SHT30;63319;46.046;17.802;2023-04-02T15:41:25;24.95;38.40
74792;SHT30;63319;46.046;17.802;2023-04-02T15:44:29;24.92;38.49
74792;SHT30;63319;46.046;17.802;2023-04-02T16:01:10;24.72;38.78
74792;SHT30;63319;46.046;17.802;2023-04-02T16:07:51;24.65;38.91
74792;SHT30;63319;46.046;17.802;2023-04-02T16:10:57;24.64;38.97
74792;SHT30;63319;46.046;17.802;2023-04-02T16:14:30;24.60;39.00
74792;SHT30;63319;46.046;17.802;2023-04-02T16:17:39;24.57;39.06
74792;SHT30;63319;46.046;17.802;2023-04-02T16:20:48;24.55;39.15
74792;SHT30;63319;46.046;17.802;2023-04-02T16:23:53;24.50;39.18
74792;SHT30;63319;46.046;17.802;2023-04-02T16:44:12;24.34;39.47
74792;SHT30;63319;46.046;17.802;2023-04-02T17:11:08;24.04;40.05
74792;SHT30;63319;46.046;17.802;2023-04-02T17:14:37;23.99;40.10
74792;SHT30;63319;46.046;17.802;2023-04-02T17:17:44;23.96;40.17
74792;SHT30;63319;46.046;17.802;2023-04-02T17:20:49;23.93;40.21
74792;SHT30;63319;46.046;17.802;2023-04-02T17:24:01;23.94;40.25
74792;SHT30;63319;46.046;17.802;2023-04-02T17:27:19;23.87;40.34
74792;SHT30;63319;46.046;17.802;2023-04-02T17:30:45;23.87;40.41
74792;SHT30;63319;46.046;17.802;2023-04-02T17:33:49;23.86;40.44
74792;SHT30;63319;46.046;17.802;2023-04-02T17:44:06;23.79;40.56
74792;SHT30;63319;46.046;17.802;2023-04-02T17:47:22;23.77;40.61
74792;SHT30;63319;46.046;17.802;2023-04-02T17:51:23;23.72;40.68
74792;SHT30;63319;46.046;17.802;2023-04-02T17:54:55;23.73;40.71
74792;SHT30;63319;46.046;17.802;2023-04-02T18:01:45;23.63;40.80
74792;SHT30;63319;46.046;17.802;2023-04-02T18:05:04;23.65;40.82
74792;SHT30;63319;46.046;17.802;2023-04-02T18:25:26;23.54;41.08
74792;SHT30;63319;46.046;17.802;2023-04-02T18:28:36;23.54;41.09
74792;SHT30;63319;46.046;17.802;2023-04-02T18:32:14;23.54;41.13
74792;SHT30;63319;46.046;17.802;2023-04-02T18:38:47;23.46;41.19
74792;SHT30;63319;46.046;17.802;2023-04-02T18:48:29;23.46;41.26
74792;SHT30;63319;46.046;17.802;2023-04-02T18:51:39;23.45;41.29
74792;SHT30;63319;46.046;17.802;2023-04-02T18:55:17;23.45;41.27
74792;SHT30;63319;46.046;17.802;2023-04-02T18:58:49;23.42;41.31
74792;SHT30;63319;46.046;17.802;2023-04-02T19:01:56;23.42;41.29
74792;SHT30;63319;46.046;17.802;2023-04-02T19:05:25;23.39;41.32
74792;SHT30;63319;46.046;17.802;2023-04-02T19:11:54;23.35;41.36
74792;SHT30;63319;46.046;17.802;2023-04-02T19:14:59;23.35;41.39
74792;SHT30;63319;46.046;17.802;2023-04-02T19:22:00;23.34;41.37
74792;SHT30;63319;46.046;17.802;2023-04-02T19:28:50;23.29;41.47
74792;SHT30;63319;46.046;17.802;2023-04-02T19:32:18;23.29;41.43
74792;SHT30;63319;46.046;17.802;2023-04-02T19:35:45;23.27;41.55
74792;SHT30;63319;46.046;17.802;2023-04-02T19:42:51;23.24;41.43
74792;SHT30;63319;46.046;17.802;2023-04-02T19:45:56;23.21;41.51
74792;SHT30;63319;46.046;17.802;2023-04-02T19:49:09;23.25;41.65
74792;SHT30;63319;46.046;17.802;2023-04-02T19:52:14;23.19;41.47
74792;SHT30;63319;46.046;17.802;2023-04-02T19:55:18;23.19;41.66
74792;SHT30;63319;46.046;17.802;2023-04-02T19:58:28;23.18;41.73
74792;SHT30;63319;46.046;17.802;2023-04-02T20:01:32;23.17;41.74
74792;SHT30;63319;46.046;17.802;2023-04-02T20:04:38;23.18;41.70
74792;SHT30;63319;46.046;17.802;2023-04-02T20:07:42;23.18;41.79
74792;SHT30;63319;46.046;17.802;2023-04-02T20:10:49;23.14;41.77
74792;SHT30;63319;46.046;17.802;2023-04-02T20:13:53;23.14;41.74
74792;SHT30;63319;46.046;17.802;2023-04-02T20:16:57;23.14;41.77
74792;SHT30;63319;46.046;17.802;2023-04-02T20:20:01;23.15;41.77
74792;SHT30;63319;46.046;17.802;2023-04-02T20:23:06;23.12;41.78
74792;SHT30;63319;46.046;17.802;2023-04-02T20:26:10;23.12;41.81
74792;SHT30;63319;46.046;17.802;2023-04-02T20:29:18;23.10;41.82
74792;SHT30;63319;46.046;17.802;2023-04-02T20:32:21;23.07;41.79
74792;SHT30;63319;46.046;17.802;2023-04-02T20:35:24;23.10;41.79
74792;SHT30;63319;46.046;17.802;2023-04-02T20:38:30;23.08;41.78
74792;SHT30;63319;46.046;17.802;2023-04-02T20:41:35;23.10;41.82
74792;SHT30;63319;46.046;17.802;2023-04-02T20:44:39;23.11;41.79
74792;SHT30;63319;46.046;17.802;2023-04-02T20:47:43;23.10;41.81
74792;SHT30;63319;46.046;17.802;2023-04-02T20:50:46;23.10;41.74
74792;SHT30;63319;46.046;17.802;2023-04-02T20:53:50;23.06;41.81
74792;SHT30;63319;46.046;17.802;2023-04-02T20:56:56;23.04;41.86
74792;SHT30;63319;46.046;17.802;2023-04-02T20:59:59;23.06;41.86
74792;SHT30;63319;46.046;17.802;2023-04-02T21:03:05;23.04;41.77
74792;SHT30;63319;46.046;17.802;2023-04-02T21:06:13;23.01;41.84
74792;SHT30;63319;46.046;17.802;2023-04-02T21:09:17;22.98;41.88
74792;SHT30;63319;46.046;17.802;2023-04-02T21:12:20;23.00;41.90
74792;SHT30;63319;46.046;17.802;2023-04-02T21:15:25;23.00;41.85
74792;SHT30;63319;46.046;17.802;2023-04-02T21:18:28;22.98;41.87
74792;SHT30;63319;46.046;17.802;2023-04-02T21:21:33;22.94;41.79
74792;SHT30;63319;46.046;17.802;2023-04-02T21:24:36;22.93;41.91
74792;SHT30;63319;46.046;17.802;2023-04-02T21:27:38;22.96;41.86
74792;SHT30;63319;46.046;17.802;2023-04-02T21:30:41;22.93;41.90
74792;SHT30;63319;46.046;17.802;2023-04-02T21:33:47;22.93;41.80
74792;SHT30;63319;46.046;17.802;2023-04-02T21:36:50;22.90;41.85
74792;SHT30;63319;46.046;17.802;2023-04-02T21:39:53;22.89;41.77
74792;SHT30;63319;46.046;17.802;2023-04-02T21:42:56;22.87;41.87
74792;SHT30;63319;46.046;17.802;2023-04-02T21:45:59;22.87;41.93
74792;SHT30;63319;46.046;17.802;2023-04-02T21:49:03;22.86;41.87
74792;SHT30;63319;46.046;17.802;2023-04-02T21:52:06;22.86;41.66
74792;SHT30;63319;46.046;17.802;2023-04-02T21:55:09;22.86;41.92
74792;SHT30;63319;46.046;17.802;2023-04-02T21:58:12;22.84;41.97
74792;SHT30;63319;46.046;17.802;2023-04-02T22:01:16;22.83;41.95
74792;SHT30;63319;46.046;17.802;2023-04-02T22:04:28;22.86;41.92
74792;SHT30;63319;46.046;17.802;2023-04-02T22:07:32;22.81;41.96
74792;SHT30;63319;46.046;17.802;2023-04-02T22:10:35;22.83;41.98
74792;SHT30;63319;46.046;17.802;2023-04-02T22:13:39;22.80;41.82
74792;SHT30;63319;46.046;17.802;2023-04-02T22:16:42;22.79;42.01
74792;SHT30;63319;46.046;17.802;2023-04-02T22:19:45;22.80;41.97
74792;SHT30;63319;46.046;17.802;2023-04-02T22:22:49;22.77;41.97
74792;SHT30;63319;46.046;17.802;2023-04-02T22:25:53;22.79;41.97
74792;SHT30;63319;46.046;17.802;2023-04-02T22:28:57;22.74;42.06
74792;SHT30;63319;46.046;17.802;2023-04-02T22:31:59;22.79;41.87
74792;SHT30;63319;46.046;17.802;2023-04-02T22:35:02;22.73;42.04
74792;SHT30;63319;46.046;17.802;2023-04-02T22:38:06;22.71;41.98
74792;SHT30;63319;46.046;17.802;2023-04-02T22:41:11;22.70;42.01
74792;SHT30;63319;46.046;17.802;2023-04-02T22:44:14;22.74;42.03
74792;SHT30;63319;46.046;17.802;2023-04-02T22:47:17;22.73;42.04
74792;SHT30;63319;46.046;17.802;2023-04-02T22:50:20;22.73;42.12
74792;SHT30;63319;46.046;17.802;2023-04-02T22:53:23;22.71;42.07
74792;SHT30;63319;46.046;17.802;2023-04-02T22:56:27;22.71;42.03
74792;SHT30;63319;46.046;17.802;2023-04-02T22:59:33;22.70;42.05
74792;SHT30;63319;46.046;17.802;2023-04-02T23:02:37;22.69;42.02
74792;SHT30;63319;46.046;17.802;2023-04-02T23:05:40;22.66;42.04
74792;SHT30;63319;46.046;17.802;2023-04-02T23:08:44;22.66;42.07
74792;SHT30;63319;46.046;17.802;2023-04-02T23:11:48;22.64;42.06
74792;SHT30;63319;46.046;17.802;2023-04-02T23:14:50;22.64;42.09
74792;SHT30;63319;46.046;17.802;2023-04-02T23:17:54;22.63;42.14
74792;SHT30;63319;46.046;17.802;2023-04-02T23:20:57;22.60;41.85
74792;SHT30;63319;46.046;17.802;2023-04-02T23:23:59;22.60;42.06
74792;SHT30;63319;46.046;17.802;2023-04-02T23:27:02;22.60;41.91
74792;SHT30;63319;46.046;17.802;2023-04-02T23:30:06;22.57;41.94
74792;SHT30;63319;46.046;17.802;2023-04-02T23:33:10;22.59;42.11
74792;SHT30;63319;46.046;17.802;2023-04-02T23:36:31;22.60;42.02
74792;SHT30;63319;46.046;17.802;2023-04-02T23:39:34;22.59;42.10
74792;SHT30;63319;46.046;17.802;2023-04-02T23:42:37;22.56;42.01
74792;SHT30;63319;46.046;17.802;2023-04-02T23:45:40;22.56;42.15
74792;SHT30;63319;46.046;17.802;2023-04-02T23:48:43;22.56;42.11
74792;SHT30;63319;46.046;17.802;2023-04-02T23:51:47;22.53;41.90
74792;SHT30;63319;46.046;17.802;2023-04-02T23:54:50;22.53;42.09
74792;SHT30;63319;46.046;17.802;2023-04-02T23:57:53;22.53;42.10
